sensor_id;sensor_type;location;lat;lon;timestamp;P1;durP1;ratioP1;P2;durP2;ratioP2
12135;SDS011;6131;56.420;15.548;2023-07-20T00:02:00;3.40;;;1.17;;
12135;SDS011;6131;56.420;15.548;2023-07-20T00:04:27;2.30;;;1.23;;
12135;SDS011;6131;56.420;15.548;2023-07-20T00:06:53;1.53;;;0.97;;
12135;SDS011;6131;56.420;15.548;2023-07-20T00:09:19;2.43;;;1.20;;
12135;SDS011;6131;56.420;15.548;2023-07-20T00:11:50;2.63;;;1.40;;
12135;SDS011;6131;56.420;15.548;2023-07-20T00:14:16;3.60;;;1.20;;
12135;SDS011;6131;56.420;15.548;2023-07-20T00:16:43;2.70;;;1.10;;
12135;SDS011;6131;56.420;15.548;2023-07-20T00:19:09;2.97;;;1.37;;
12135;SDS011;6131;56.420;15.548;2023-07-20T00:21:35;4.43;;;1.27;;
12135;SDS011;6131;56.420;15.548;2023-07-20T00:24:02;2.47;;;1.13;;
12135;SDS011;6131;56.420;15.548;2023-07-20T00:26:28;4.57;;;1.40;;
12135;SDS011;6131;56.420;15.548;2023-07-20T00:28:54;3.13;;;1.40;;
12135;SDS011;6131;56.420;15.548;2023-07-20T00:31:20;3.70;;;1.40;;
12135;SDS011;6131;56.420;15.548;2023-07-20T00:33:46;3.03;;;1.27;;
12135;SDS011;6131;56.420;15.548;2023-07-20T00:36:13;2.40;;;1.50;;
12135;SDS011;6131;56.420;15.548;2023-07-20T00:38:41;5.60;;;1.40;;
12135;SDS011;6131;56.420;15.548;2023-07-20T00:41:07;4.37;;;1.40;;
12135;SDS011;6131;56.420;15.548;2023-07-20T00:43:33;4.77;;;1.30;;
12135;SDS011;6131;56.420;15.548;2023-07-20T00:45:59;3.87;;;1.47;;
12135;SDS011;6131;56.420;15.548;2023-07-20T00:48:27;3.90;;;1.43;;
12135;SDS011;6131;56.420;15.548;2023-07-20T00:50:53;3.00;;;1.20;;
12135;SDS011;6131;56.420;15.548;2023-07-20T00:53:20;2.37;;;1.30;;
12135;SDS011;6131;56.420;15.548;2023-07-20T00:55:46;5.30;;;1.70;;
12135;SDS011;6131;56.420;15.548;2023-07-20T00:58:13;5.57;;;1.70;;
12135;SDS011;6131;56.420;15.548;2023-07-20T01:00:39;2.77;;;1.30;;
12135;SDS011;6131;56.420;15.548;2023-07-20T01:03:05;3.93;;;1.37;;
12135;SDS011;6131;56.420;15.548;2023-07-20T01:05:35;3.47;;;1.30;;
12135;SDS011;6131;56.420;15.548;2023-07-20T01:08:27;3.77;;;1.33;;
12135;SDS011;6131;56.420;15.548;2023-07-20T01:10:51;2.60;;;1.27;;
12135;SDS011;6131;56.420;15.548;2023-07-20T01:13:20;5.33;;;1.30;;
12135;SDS011;6131;56.420;15.548;2023-07-20T01:15:53;2.67;;;1.37;;
12135;SDS011;6131;56.420;15.548;2023-07-20T01:18:19;2.67;;;1.37;;
12135;SDS011;6131;56.420;15.548;2023-07-20T01:20:45;3.67;;;1.30;;
12135;SDS011;6131;56.420;15.548;2023-07-20T01:28:47;4.00;;;1.30;;
12135;SDS011;6131;56.420;15.548;2023-07-20T01:33:43;7.20;;;1.50;;
12135;SDS011;6131;56.420;15.548;2023-07-20T01:36:10;2.60;;;1.20;;
12135;SDS011;6131;56.420;15.548;2023-07-20T01:38:36;3.20;;;1.33;;
12135;SDS011;6131;56.420;15.548;2023-07-20T01:41:03;2.00;;;1.30;;
12135;SDS011;6131;56.420;15.548;2023-07-20T01:43:29;3.00;;;1.30;;
12135;SDS011;6131;56.420;15.548;2023-07-20T01:45:55;1.73;;;1.33;;
12135;SDS011;6131;56.420;15.548;2023-07-20T01:48:21;5.00;;;1.40;;
12135;SDS011;6131;56.420;15.548;2023-07-20T01:50:47;2.87;;;1.20;;
12135;SDS011;6131;56.420;15.548;2023-07-20T01:53:13;2.73;;;1.20;;
12135;SDS011;6131;56.420;15.548;2023-07-20T01:55:39;2.67;;;1.00;;
12135;SDS011;6131;56.420;15.548;2023-07-20T01:58:05;2.97;;;1.20;;
12135;SDS011;6131;56.420;15.548;2023-07-20T02:00:31;2.43;;;1.20;;
12135;SDS011;6131;56.420;15.548;2023-07-20T02:02:57;1.77;;;1.37;;
12135;SDS011;6131;56.420;15.548;2023-07-20T02:05:23;2.30;;;1.40;;
12135;SDS011;6131;56.420;15.548;2023-07-20T02:07:50;1.30;;;0.90;;
12135;SDS011;6131;56.420;15.548;2023-07-20T02:10:16;1.87;;;1.40;;
12135;SDS011;6131;56.420;15.548;2023-07-20T02:12:42;12.17;;;1.70;;
12135;SDS011;6131;56.420;15.548;2023-07-20T02:15:08;3.27;;;1.30;;
12135;SDS011;6131;56.420;15.548;2023-07-20T02:17:34;2.00;;;1.33;;
12135;SDS011;6131;56.420;15.548;2023-07-20T02:20:00;1.13;;;1.00;;
12135;SDS011;6131;56.420;15.548;2023-07-20T02:22:26;2.27;;;1.27;;
12135;SDS011;6131;56.420;15.548;2023-07-20T02:24:52;3.40;;;1.37;;
12135;SDS011;6131;56.420;15.548;2023-07-20T02:27:18;1.83;;;1.20;;
12135;SDS011;6131;56.420;15.548;2023-07-20T02:29:44;2.03;;;1.13;;
12135;SDS011;6131;56.420;15.548;2023-07-20T02:32:10;2.87;;;1.20;;
12135;SDS011;6131;56.420;15.548;2023-07-20T02:34:36;2.30;;;1.10;;
12135;SDS011;6131;56.420;15.548;2023-07-20T02:37:03;1.73;;;1.00;;
12135;SDS011;6131;56.420;15.548;2023-07-20T02:39:29;3.97;;;1.23;;
12135;SDS011;6131;56.420;15.548;2023-07-20T02:41:55;2.27;;;1.30;;
12135;SDS011;6131;56.420;15.548;2023-07-20T02:44:21;2.40;;;1.30;;
12135;SDS011;6131;56.420;15.548;2023-07-20T02:46:48;2.30;;;1.23;;
12135;SDS011;6131;56.420;15.548;2023-07-20T02:49:17;3.00;;;1.10;;
12135;SDS011;6131;56.420;15.548;2023-07-20T02:51:43;1.70;;;1.20;;
12135;SDS011;6131;56.420;15.548;2023-07-20T02:54:09;2.63;;;1.23;;
12135;SDS011;6131;56.420;15.548;2023-07-20T02:56:35;2.40;;;1.30;;
12135;SDS011;6131;56.420;15.548;2023-07-20T02:59:01;3.47;;;1.30;;
12135;SDS011;6131;56.420;15.548;2023-07-20T03:01:27;2.50;;;1.07;;
12135;SDS011;6131;56.420;15.548;2023-07-20T03:03:56;2.00;;;1.17;;
12135;SDS011;6131;56.420;15.548;2023-07-20T03:06:22;2.67;;;1.10;;
12135;SDS011;6131;56.420;15.548;2023-07-20T03:08:48;2.07;;;1.17;;
12135;SDS011;6131;56.420;15.548;2023-07-20T03:11:17;2.90;;;1.20;;
12135;SDS011;6131;56.420;15.548;2023-07-20T03:13:43;1.93;;;0.97;;
12135;SDS011;6131;56.420;15.548;2023-07-20T03:16:13;3.63;;;1.57;;
12135;SDS011;6131;56.420;15.548;2023-07-20T03:18:44;1.73;;;1.33;;
12135;SDS011;6131;56.420;15.548;2023-07-20T03:21:10;2.80;;;1.20;;
12135;SDS011;6131;56.420;15.548;2023-07-20T03:23:36;1.53;;;1.10;;
12135;SDS011;6131;56.420;15.548;2023-07-20T03:26:02;2.40;;;1.03;;
12135;SDS011;6131;56.420;15.548;2023-07-20T03:28:29;2.13;;;1.20;;
12135;SDS011;6131;56.420;15.548;2023-07-20T03:30:55;1.70;;;1.20;;
12135;SDS011;6131;56.420;15.548;2023-07-20T03:33:22;2.13;;;1.17;;
12135;SDS011;6131;56.420;15.548;2023-07-20T03:35:48;1.70;;;1.20;;
12135;SDS011;6131;56.420;15.548;2023-07-20T03:38:14;2.10;;;0.93;;
12135;SDS011;6131;56.420;15.548;2023-07-20T03:40:48;1.50;;;1.07;;
12135;SDS011;6131;56.420;15.548;2023-07-20T03:43:14;2.27;;;1.20;;
12135;SDS011;6131;56.420;15.548;2023-07-20T03:45:40;1.10;;;1.00;;
12135;SDS011;6131;56.420;15.548;2023-07-20T03:48:06;3.20;;;1.10;;
12135;SDS011;6131;56.420;15.548;2023-07-20T03:50:32;3.57;;;1.30;;
12135;SDS011;6131;56.420;15.548;2023-07-20T03:52:58;1.50;;;1.00;;
12135;SDS011;6131;56.420;15.548;2023-07-20T03:55:24;2.77;;;1.37;;
12135;SDS011;6131;56.420;15.548;2023-07-20T03:57:50;3.30;;;1.03;;
12135;SDS011;6131;56.420;15.548;2023-07-20T04:00:17;3.83;;;1.30;;
12135;SDS011;6131;56.420;15.548;2023-07-20T04:02:43;2.17;;;1.40;;
12135;SDS011;6131;56.420;15.548;2023-07-20T04:05:09;1.63;;;1.13;;
12135;SDS011;6131;56.420;15.548;2023-07-20T04:07:36;3.90;;;1.23;;
12135;SDS011;6131;56.420;15.548;2023-07-20T04:10:02;3.73;;;1.17;;
12135;SDS011;6131;56.420;15.548;2023-07-20T04:12:28;2.83;;;1.40;;
12135;SDS011;6131;56.420;15.548;2023-07-20T04:14:54;3.13;;;1.50;;
12135;SDS011;6131;56.420;15.548;2023-07-20T04:17:20;4.80;;;1.10;;
12135;SDS011;6131;56.420;15.548;2023-07-20T04:19:46;1.80;;;1.00;;
12135;SDS011;6131;56.420;15.548;2023-07-20T04:22:13;2.50;;;1.27;;
12135;SDS011;6131;56.420;15.548;2023-07-20T04:24:41;2.20;;;1.30;;
12135;SDS011;6131;56.420;15.548;2023-07-20T04:27:07;4.20;;;1.40;;
12135;SDS011;6131;56.420;15.548;2023-07-20T04:29:33;1.93;;;1.00;;
12135;SDS011;6131;56.420;15.548;2023-07-20T04:31:59;1.17;;;0.90;;
12135;SDS011;6131;56.420;15.548;2023-07-20T04:34:25;1.17;;;0.90;;
12135;SDS011;6131;56.420;15.548;2023-07-20T04:36:51;2.13;;;1.20;;
12135;SDS011;6131;56.420;15.548;2023-07-20T04:39:18;2.50;;;1.00;;
12135;SDS011;6131;56.420;15.548;2023-07-20T04:41:44;2.67;;;1.10;;
12135;SDS011;6131;56.420;15.548;2023-07-20T04:44:10;4.83;;;1.30;;
12135;SDS011;6131;56.420;15.548;2023-07-20T04:46:36;1.73;;;1.20;;
12135;SDS011;6131;56.420;15.548;2023-07-20T04:49:02;3.53;;;1.20;;
12135;SDS011;6131;56.420;15.548;2023-07-20T04:51:28;2.77;;;1.20;;
12135;SDS011;6131;56.420;15.548;2023-07-20T04:53:55;3.03;;;1.03;;
12135;SDS011;6131;56.420;15.548;2023-07-20T04:56:21;3.60;;;1.10;;
12135;SDS011;6131;56.420;15.548;2023-07-20T04:58:48;2.27;;;1.07;;
12135;SDS011;6131;56.420;15.548;2023-07-20T05:01:14;1.43;;;1.10;;
12135;SDS011;6131;56.420;15.548;2023-07-20T05:03:40;1.97;;;1.00;;
12135;SDS011;6131;56.420;15.548;2023-07-20T05:06:06;2.27;;;1.10;;
12135;SDS011;6131;56.420;15.548;2023-07-20T05:08:32;2.20;;;1.03;;
12135;SDS011;6131;56.420;15.548;2023-07-20T05:11:01;2.57;;;1.10;;
12135;SDS011;6131;56.420;15.548;2023-07-20T05:13:27;3.63;;;1.20;;
12135;SDS011;6131;56.420;15.548;2023-07-20T05:15:53;2.10;;;1.10;;
12135;SDS011;6131;56.420;15.548;2023-07-20T05:18:19;1.87;;;1.10;;
12135;SDS011;6131;56.420;15.548;2023-07-20T05:20:49;1.30;;;1.13;;
12135;SDS011;6131;56.420;15.548;2023-07-20T05:23:16;2.93;;;0.93;;
12135;SDS011;6131;56.420;15.548;2023-07-20T05:25:42;3.10;;;1.10;;
12135;SDS011;6131;56.420;15.548;2023-07-20T05:28:09;2.27;;;1.17;;
12135;SDS011;6131;56.420;15.548;2023-07-20T05:30:35;1.93;;;0.90;;
12135;SDS011;6131;56.420;15.548;2023-07-20T05:33:01;1.77;;;0.90;;
12135;SDS011;6131;56.420;15.548;2023-07-20T05:35:27;4.10;;;1.00;;
12135;SDS011;6131;56.420;15.548;2023-07-20T05:37:53;2.83;;;0.87;;
12135;SDS011;6131;56.420;15.548;2023-07-20T05:40:19;2.73;;;1.03;;
12135;SDS011;6131;56.420;15.548;2023-07-20T05:42:46;1.10;;;0.90;;
12135;SDS011;6131;56.420;15.548;2023-07-20T05:45:13;2.63;;;1.00;;
12135;SDS011;6131;56.420;15.548;2023-07-20T05:47:41;2.17;;;1.00;;
12135;SDS011;6131;56.420;15.548;2023-07-20T05:50:07;1.37;;;0.80;;
12135;SDS011;6131;56.420;15.548;2023-07-20T05:52:33;3.63;;;1.17;;
12135;SDS011;6131;56.420;15.548;2023-07-20T05:54:59;2.97;;;0.83;;
12135;SDS011;6131;56.420;15.548;2023-07-20T05:57:25;2.30;;;1.03;;
12135;SDS011;6131;56.420;15.548;2023-07-20T05:59:51;2.30;;;1.03;;
12135;SDS011;6131;56.420;15.548;2023-07-20T06:02:17;2.13;;;1.00;;
12135;SDS011;6131;56.420;15.548;2023-07-20T06:04:43;1.73;;;0.80;;
12135;SDS011;6131;56.420;15.548;2023-07-20T06:07:09;3.20;;;0.80;;
12135;SDS011;6131;56.420;15.548;2023-07-20T06:09:35;3.33;;;1.00;;
12135;SDS011;6131;56.420;15.548;2023-07-20T06:12:02;3.80;;;1.10;;
12135;SDS011;6131;56.420;15.548;2023-07-20T06:14:28;3.37;;;1.17;;
12135;SDS011;6131;56.420;15.548;2023-07-20T06:16:54;3.47;;;1.20;;
12135;SDS011;6131;56.420;15.548;2023-07-20T06:19:20;4.40;;;0.93;;
12135;SDS011;6131;56.420;15.548;2023-07-20T06:21:47;1.90;;;1.00;;
12135;SDS011;6131;56.420;15.548;2023-07-20T06:24:14;2.73;;;1.70;;
12135;SDS011;6131;56.420;15.548;2023-07-20T06:26:40;2.67;;;1.13;;
12135;SDS011;6131;56.420;15.548;2023-07-20T06:29:08;2.07;;;1.20;;
12135;SDS011;6131;56.420;15.548;2023-07-20T06:31:34;5.43;;;1.40;;
12135;SDS011;6131;56.420;15.548;2023-07-20T06:34:01;2.40;;;1.10;;
12135;SDS011;6131;56.420;15.548;2023-07-20T06:36:27;3.03;;;1.27;;
12135;SDS011;6131;56.420;15.548;2023-07-20T06:38:53;7.13;;;1.83;;
12135;SDS011;6131;56.420;15.548;2023-07-20T06:41:19;4.17;;;1.50;;
12135;SDS011;6131;56.420;15.548;2023-07-20T06:43:45;4.80;;;1.77;;
12135;SDS011;6131;56.420;15.548;2023-07-20T06:46:11;2.67;;;1.50;;
12135;SDS011;6131;56.420;15.548;2023-07-20T06:48:37;5.67;;;1.60;;
12135;SDS011;6131;56.420;15.548;2023-07-20T06:51:05;2.60;;;1.33;;
12135;SDS011;6131;56.420;15.548;2023-07-20T06:53:31;4.43;;;1.60;;
12135;SDS011;6131;56.420;15.548;2023-07-20T06:55:57;4.03;;;1.40;;
12135;SDS011;6131;56.420;15.548;2023-07-20T06:58:23;3.23;;;1.30;;
12135;SDS011;6131;56.420;15.548;2023-07-20T07:00:49;3.90;;;1.63;;
12135;SDS011;6131;56.420;15.548;2023-07-20T07:03:15;3.43;;;1.53;;
12135;SDS011;6131;56.420;15.548;2023-07-20T07:05:42;3.07;;;1.40;;
12135;SDS011;6131;56.420;15.548;2023-07-20T07:08:09;1.90;;;1.30;;
12135;SDS011;6131;56.420;15.548;2023-07-20T07:10:35;2.50;;;1.27;;
12135;SDS011;6131;56.420;15.548;2023-07-20T07:13:02;3.63;;;1.60;;
12135;SDS011;6131;56.420;15.548;2023-07-20T07:15:29;2.10;;;1.60;;
12135;SDS011;6131;56.420;15.548;2023-07-20T07:17:55;1.70;;;1.20;;
12135;SDS011;6131;56.420;15.548;2023-07-20T07:20:21;3.50;;;2.00;;
12135;SDS011;6131;56.420;15.548;2023-07-20T07:22:49;3.63;;;1.53;;
12135;SDS011;6131;56.420;15.548;2023-07-20T07:25:16;2.47;;;1.50;;
12135;SDS011;6131;56.420;15.548;2023-07-20T07:27:42;3.83;;;1.57;;
12135;SDS011;6131;56.420;15.548;2023-07-20T07:30:08;2.20;;;1.30;;
12135;SDS011;6131;56.420;15.548;2023-07-20T07:32:34;2.87;;;1.40;;
12135;SDS011;6131;56.420;15.548;2023-07-20T07:35:04;2.47;;;1.40;;
12135;SDS011;6131;56.420;15.548;2023-07-20T07:37:30;2.77;;;1.50;;
12135;SDS011;6131;56.420;15.548;2023-07-20T07:39:56;2.90;;;1.33;;
12135;SDS011;6131;56.420;15.548;2023-07-20T07:42:22;2.43;;;1.40;;
12135;SDS011;6131;56.420;15.548;2023-07-20T07:44:48;2.40;;;1.50;;
12135;SDS011;6131;56.420;15.548;2023-07-20T07:47:14;2.70;;;1.33;;
12135;SDS011;6131;56.420;15.548;2023-07-20T07:49:41;3.57;;;1.40;;
12135;SDS011;6131;56.420;15.548;2023-07-20T07:52:07;3.40;;;1.50;;
12135;SDS011;6131;56.420;15.548;2023-07-20T07:54:33;1.70;;;1.40;;
12135;SDS011;6131;56.420;15.548;2023-07-20T07:56:59;2.93;;;1.47;;
12135;SDS011;6131;56.420;15.548;2023-07-20T07:59:25;2.37;;;1.30;;
12135;SDS011;6131;56.420;15.548;2023-07-20T08:01:51;2.90;;;1.37;;
12135;SDS011;6131;56.420;15.548;2023-07-20T08:04:17;2.80;;;1.40;;
12135;SDS011;6131;56.420;15.548;2023-07-20T08:06:44;2.90;;;1.33;;
12135;SDS011;6131;56.420;15.548;2023-07-20T08:09:10;2.43;;;1.30;;
12135;SDS011;6131;56.420;15.548;2023-07-20T08:11:36;3.20;;;1.50;;
12135;SDS011;6131;56.420;15.548;2023-07-20T08:14:04;3.53;;;1.40;;
12135;SDS011;6131;56.420;15.548;2023-07-20T08:16:30;2.97;;;1.50;;
12135;SDS011;6131;56.420;15.548;2023-07-20T08:18:56;3.60;;;1.50;;
12135;SDS011;6131;56.420;15.548;2023-07-20T08:21:22;2.77;;;1.50;;
12135;SDS011;6131;56.420;15.548;2023-07-20T08:23:48;2.45;;;1.52;;
12135;SDS011;6131;56.420;15.548;2023-07-20T08:26:14;2.33;;;1.43;;
12135;SDS011;6131;56.420;15.548;2023-07-20T08:28:43;3.77;;;1.67;;
12135;SDS011;6131;56.420;15.548;2023-07-20T08:31:11;3.85;;;1.73;;
12135;SDS011;6131;56.420;15.548;2023-07-20T08:33:37;2.80;;;1.60;;
12135;SDS011;6131;56.420;15.548;2023-07-20T08:36:03;3.47;;;1.60;;
12135;SDS011;6131;56.420;15.548;2023-07-20T08:38:29;2.10;;;1.60;;
12135;SDS011;6131;56.420;15.548;2023-07-20T08:40:55;5.30;;;2.00;;
12135;SDS011;6131;56.420;15.548;2023-07-20T08:43:21;2.73;;;1.63;;
12135;SDS011;6131;56.420;15.548;2023-07-20T08:45:49;2.30;;;1.40;;
12135;SDS011;6131;56.420;15.548;2023-07-20T08:48:15;4.28;;;1.70;;
12135;SDS011;6131;56.420;15.548;2023-07-20T08:50:43;3.37;;;1.53;;
12135;SDS011;6131;56.420;15.548;2023-07-20T08:53:09;3.00;;;1.50;;
12135;SDS011;6131;56.420;15.548;2023-07-20T08:55:35;2.43;;;1.53;;
12135;SDS011;6131;56.420;15.548;2023-07-20T08:58:02;3.03;;;1.70;;
12135;SDS011;6131;56.420;15.548;2023-07-20T09:00:28;2.90;;;1.67;;
12135;SDS011;6131;56.420;15.548;2023-07-20T09:02:54;2.10;;;1.50;;
12135;SDS011;6131;56.420;15.548;2023-07-20T09:05:24;2.65;;;1.50;;
12135;SDS011;6131;56.420;15.548;2023-07-20T09:07:53;2.67;;;1.60;;
12135;SDS011;6131;56.420;15.548;2023-07-20T09:10:23;2.28;;;1.30;;
12135;SDS011;6131;56.420;15.548;2023-07-20T09:12:49;4.30;;;1.50;;
12135;SDS011;6131;56.420;15.548;2023-07-20T09:15:15;3.38;;;1.50;;
12135;SDS011;6131;56.420;15.548;2023-07-20T09:17:45;2.47;;;1.45;;
12135;SDS011;6131;56.420;15.548;2023-07-20T09:20:12;2.67;;;1.25;;
12135;SDS011;6131;56.420;15.548;2023-07-20T09:22:39;3.20;;;1.65;;
12135;SDS011;6131;56.420;15.548;2023-07-20T09:25:12;2.63;;;1.70;;
12135;SDS011;6131;56.420;15.548;2023-07-20T09:27:44;3.60;;;1.35;;
12135;SDS011;6131;56.420;15.548;2023-07-20T09:30:11;1.83;;;1.20;;
12135;SDS011;6131;56.420;15.548;2023-07-20T09:32:40;2.38;;;1.40;;
12135;SDS011;6131;56.420;15.548;2023-07-20T09:35:12;3.85;;;1.23;;
12135;SDS011;6131;56.420;15.548;2023-07-20T09:37:38;1.65;;;1.13;;
12135;SDS011;6131;56.420;15.548;2023-07-20T09:40:06;3.17;;;1.38;;
12135;SDS011;6131;56.420;15.548;2023-07-20T09:42:33;1.40;;;1.15;;
12135;SDS011;6131;56.420;15.548;2023-07-20T09:45:00;2.75;;;1.38;;
12135;SDS011;6131;56.420;15.548;2023-07-20T09:47:26;1.77;;;1.20;;
12135;SDS011;6131;56.420;15.548;2023-07-20T09:50:00;3.58;;;1.20;;
12135;SDS011;6131;56.420;15.548;2023-07-20T09:52:29;3.88;;;1.25;;
12135;SDS011;6131;56.420;15.548;2023-07-20T09:54:56;3.10;;;1.20;;
12135;SDS011;6131;56.420;15.548;2023-07-20T09:57:23;3.65;;;1.50;;
12135;SDS011;6131;56.420;15.548;2023-07-20T09:59:49;1.85;;;1.05;;
12135;SDS011;6131;56.420;15.548;2023-07-20T10:02:23;2.13;;;1.20;;
12135;SDS011;6131;56.420;15.548;2023-07-20T10:04:51;1.98;;;1.30;;
12135;SDS011;6131;56.420;15.548;2023-07-20T10:07:18;2.08;;;1.08;;
12135;SDS011;6131;56.420;15.548;2023-07-20T10:09:46;2.65;;;1.23;;
12135;SDS011;6131;56.420;15.548;2023-07-20T10:12:13;2.60;;;1.10;;
12135;SDS011;6131;56.420;15.548;2023-07-20T10:14:41;1.50;;;1.10;;
12135;SDS011;6131;56.420;15.548;2023-07-20T10:17:09;2.50;;;1.27;;
12135;SDS011;6131;56.420;15.548;2023-07-20T10:19:44;1.92;;;1.00;;
12135;SDS011;6131;56.420;15.548;2023-07-20T10:22:14;2.42;;;1.00;;
12135;SDS011;6131;56.420;15.548;2023-07-20T10:24:44;1.13;;;0.85;;
12135;SDS011;6131;56.420;15.548;2023-07-20T10:27:10;1.83;;;1.10;;
12135;SDS011;6131;56.420;15.548;2023-07-20T10:29:36;2.13;;;1.00;;
12135;SDS011;6131;56.420;15.548;2023-07-20T10:32:02;2.67;;;1.20;;
12135;SDS011;6131;56.420;15.548;2023-07-20T10:34:30;2.08;;;1.20;;
12135;SDS011;6131;56.420;15.548;2023-07-20T10:36:56;2.42;;;1.10;;
12135;SDS011;6131;56.420;15.548;2023-07-20T10:39:25;2.03;;;1.00;;
12135;SDS011;6131;56.420;15.548;2023-07-20T10:44:28;1.70;;;1.10;;
12135;SDS011;6131;56.420;15.548;2023-07-20T10:47:01;2.42;;;1.10;;
12135;SDS011;6131;56.420;15.548;2023-07-20T10:49:27;1.42;;;0.90;;
12135;SDS011;6131;56.420;15.548;2023-07-20T10:51:57;2.58;;;1.05;;
12135;SDS011;6131;56.420;15.548;2023-07-20T10:56:55;1.20;;;0.80;;
12135;SDS011;6131;56.420;15.548;2023-07-20T11:01:57;2.70;;;1.10;;
12135;SDS011;6131;56.420;15.548;2023-07-20T11:04:47;1.35;;;0.88;;
12135;SDS011;6131;56.420;15.548;2023-07-20T11:07:21;1.27;;;0.88;;
12135;SDS011;6131;56.420;15.548;2023-07-20T11:10:13;1.95;;;1.20;;
12135;SDS011;6131;56.420;15.548;2023-07-20T11:12:40;1.27;;;0.90;;
12135;SDS011;6131;56.420;15.548;2023-07-20T11:15:06;1.45;;;0.70;;
12135;SDS011;6131;56.420;15.548;2023-07-20T11:17:33;1.10;;;0.70;;
12135;SDS011;6131;56.420;15.548;2023-07-20T11:20:01;1.00;;;0.60;;
12135;SDS011;6131;56.420;15.548;2023-07-20T11:22:28;0.93;;;0.63;;
12135;SDS011;6131;56.420;15.548;2023-07-20T11:24:57;1.27;;;0.85;;
12135;SDS011;6131;56.420;15.548;2023-07-20T11:27:23;0.75;;;0.40;;
12135;SDS011;6131;56.420;15.548;2023-07-20T11:29:49;0.80;;;0.50;;
12135;SDS011;6131;56.420;15.548;2023-07-20T11:32:22;1.42;;;0.80;;
12135;SDS011;6131;56.420;15.548;2023-07-20T11:34:48;0.65;;;0.57;;
12135;SDS011;6131;56.420;15.548;2023-07-20T11:37:15;1.52;;;0.70;;
12135;SDS011;6131;56.420;15.548;2023-07-20T11:39:41;1.40;;;0.52;;
12135;SDS011;6131;56.420;15.548;2023-07-20T11:42:07;1.33;;;0.50;;
12135;SDS011;6131;56.420;15.548;2023-07-20T11:44:33;1.02;;;0.40;;
12135;SDS011;6131;56.420;15.548;2023-07-20T11:47:12;4.10;;;0.40;;
12135;SDS011;6131;56.420;15.548;2023-07-20T11:49:38;1.27;;;0.63;;
12135;SDS011;6131;56.420;15.548;2023-07-20T11:52:08;0.65;;;0.50;;
12135;SDS011;6131;56.420;15.548;2023-07-20T11:54:35;2.25;;;0.35;;
12135;SDS011;6131;56.420;15.548;2023-07-20T11:57:01;3.42;;;0.63;;
12135;SDS011;6131;56.420;15.548;2023-07-20T11:59:28;0.80;;;0.40;;
12135;SDS011;6131;56.420;15.548;2023-07-20T12:01:54;1.50;;;0.52;;
12135;SDS011;6131;56.420;15.548;2023-07-20T12:04:22;1.50;;;0.70;;
12135;SDS011;6131;56.420;15.548;2023-07-20T12:06:48;0.63;;;0.60;;
12135;SDS011;6131;56.420;15.548;2023-07-20T12:09:14;0.90;;;0.60;;
12135;SDS011;6131;56.420;15.548;2023-07-20T12:11:42;0.82;;;0.68;;
12135;SDS011;6131;56.420;15.548;2023-07-20T12:14:08;2.08;;;0.60;;
12135;SDS011;6131;56.420;15.548;2023-07-20T12:16:35;1.52;;;0.63;;
12135;SDS011;6131;56.420;15.548;2023-07-20T12:19:04;1.38;;;0.77;;
12135;SDS011;6131;56.420;15.548;2023-07-20T12:21:30;0.82;;;0.60;;
12135;SDS011;6131;56.420;15.548;2023-07-20T12:23:58;0.98;;;0.68;;
12135;SDS011;6131;56.420;15.548;2023-07-20T12:26:24;1.02;;;0.65;;
12135;SDS011;6131;56.420;15.548;2023-07-20T12:28:51;0.63;;;0.60;;
12135;SDS011;6131;56.420;15.548;2023-07-20T12:31:19;1.75;;;0.70;;
12135;SDS011;6131;56.420;15.548;2023-07-20T12:33:46;1.23;;;0.70;;
12135;SDS011;6131;56.420;15.548;2023-07-20T12:36:13;0.95;;;0.60;;
12135;SDS011;6131;56.420;15.548;2023-07-20T12:38:39;0.90;;;0.70;;
12135;SDS011;6131;56.420;15.548;2023-07-20T12:41:06;0.82;;;0.70;;
12135;SDS011;6131;56.420;15.548;2023-07-20T12:43:33;2.10;;;0.70;;
12135;SDS011;6131;56.420;15.548;2023-07-20T12:45:59;2.80;;;0.75;;
12135;SDS011;6131;56.420;15.548;2023-07-20T12:48:25;1.80;;;0.80;;
12135;SDS011;6131;56.420;15.548;2023-07-20T12:50:51;1.05;;;0.70;;
12135;SDS011;6131;56.420;15.548;2023-07-20T12:53:20;2.58;;;0.80;;
12135;SDS011;6131;56.420;15.548;2023-07-20T12:55:47;3.08;;;0.80;;
12135;SDS011;6131;56.420;15.548;2023-07-20T12:58:13;0.88;;;0.60;;
12135;SDS011;6131;56.420;15.548;2023-07-20T13:00:39;1.98;;;0.70;;
12135;SDS011;6131;56.420;15.548;2023-07-20T13:03:05;1.23;;;0.70;;
12135;SDS011;6131;56.420;15.548;2023-07-20T13:05:32;0.90;;;0.60;;
12135;SDS011;6131;56.420;15.548;2023-07-20T13:07:59;0.60;;;0.60;;
12135;SDS011;6131;56.420;15.548;2023-07-20T13:10:26;1.52;;;0.82;;
12135;SDS011;6131;56.420;15.548;2023-07-20T13:12:52;1.10;;;0.63;;
12135;SDS011;6131;56.420;15.548;2023-07-20T13:15:18;1.42;;;0.70;;
12135;SDS011;6131;56.420;15.548;2023-07-20T13:17:44;1.38;;;0.70;;
12135;SDS011;6131;56.420;15.548;2023-07-20T13:20:12;2.20;;;0.80;;
12135;SDS011;6131;56.420;15.548;2023-07-20T13:22:38;2.05;;;1.08;;
12135;SDS011;6131;56.420;15.548;2023-07-20T13:25:05;1.50;;;0.70;;
12135;SDS011;6131;56.420;15.548;2023-07-20T13:27:32;2.05;;;1.02;;
12135;SDS011;6131;56.420;15.548;2023-07-20T13:29:59;1.48;;;0.60;;
12135;SDS011;6131;56.420;15.548;2023-07-20T13:32:26;1.27;;;0.80;;
12135;SDS011;6131;56.420;15.548;2023-07-20T13:34:52;1.75;;;0.75;;
12135;SDS011;6131;56.420;15.548;2023-07-20T13:37:19;1.35;;;0.82;;
12135;SDS011;6131;56.420;15.548;2023-07-20T13:39:45;1.52;;;0.80;;
12135;SDS011;6131;56.420;15.548;2023-07-20T13:42:11;2.33;;;0.73;;
12135;SDS011;6131;56.420;15.548;2023-07-20T13:44:37;1.27;;;0.70;;
12135;SDS011;6131;56.420;15.548;2023-07-20T13:47:04;1.63;;;0.60;;
12135;SDS011;6131;56.420;15.548;2023-07-20T13:49:33;0.80;;;0.60;;
12135;SDS011;6131;56.420;15.548;2023-07-20T13:51:59;2.30;;;0.88;;
12135;SDS011;6131;56.420;15.548;2023-07-20T13:54:25;1.52;;;0.80;;
12135;SDS011;6131;56.420;15.548;2023-07-20T13:56:51;1.48;;;0.77;;
12135;SDS011;6131;56.420;15.548;2023-07-20T13:59:18;2.58;;;0.95;;
12135;SDS011;6131;56.420;15.548;2023-07-20T14:01:44;1.65;;;0.88;;
12135;SDS011;6131;56.420;15.548;2023-07-20T14:04:11;1.92;;;0.65;;
12135;SDS011;6131;56.420;15.548;2023-07-20T14:06:37;1.88;;;0.70;;
12135;SDS011;6131;56.420;15.548;2023-07-20T14:09:03;1.13;;;0.60;;
12135;SDS011;6131;56.420;15.548;2023-07-20T14:11:29;1.17;;;0.50;;
12135;SDS011;6131;56.420;15.548;2023-07-20T14:13:55;0.95;;;0.50;;
12135;SDS011;6131;56.420;15.548;2023-07-20T14:16:23;2.40;;;0.50;;
12135;SDS011;6131;56.420;15.548;2023-07-20T14:18:49;2.90;;;0.57;;
12135;SDS011;6131;56.420;15.548;2023-07-20T14:21:16;0.85;;;0.52;;
12135;SDS011;6131;56.420;15.548;2023-07-20T14:23:44;0.57;;;0.50;;
12135;SDS011;6131;56.420;15.548;2023-07-20T14:26:11;2.70;;;0.50;;
12135;SDS011;6131;56.420;15.548;2023-07-20T14:28:37;0.75;;;0.30;;
12135;SDS011;6131;56.420;15.548;2023-07-20T14:31:03;0.88;;;0.30;;
12135;SDS011;6131;56.420;15.548;2023-07-20T14:33:30;1.05;;;0.52;;
12135;SDS011;6131;56.420;15.548;2023-07-20T14:35:56;1.05;;;0.47;;
12135;SDS011;6131;56.420;15.548;2023-07-20T14:38:22;0.65;;;0.25;;
12135;SDS011;6131;56.420;15.548;2023-07-20T14:40:48;0.95;;;0.50;;
12135;SDS011;6131;56.420;15.548;2023-07-20T14:43:14;1.95;;;0.45;;
12135;SDS011;6131;56.420;15.548;2023-07-20T14:45:40;1.98;;;0.55;;
12135;SDS011;6131;56.420;15.548;2023-07-20T14:48:06;1.00;;;0.45;;
12135;SDS011;6131;56.420;15.548;2023-07-20T14:50:33;0.93;;;0.40;;
12135;SDS011;6131;56.420;15.548;2023-07-20T14:53:00;1.35;;;0.50;;
12135;SDS011;6131;56.420;15.548;2023-07-20T14:55:26;1.75;;;0.47;;
12135;SDS011;6131;56.420;15.548;2023-07-20T14:57:53;1.35;;;0.43;;
12135;SDS011;6131;56.420;15.548;2023-07-20T15:00:19;1.48;;;0.65;;
12135;SDS011;6131;56.420;15.548;2023-07-20T15:02:45;0.60;;;0.40;;